aviador You're here:

LYVR Decoded Metar

VRSAC in SERBIA
Report Time2018-06-23 12:00:00
UTC Time2018-06-23 12:15:08
Flight Rules vfr VFR
Wind280° at 08 kt
W.Decomp.*RWY 34: 3.6 kt HW 7.1 kt LCW
RWY 19: 0.4 kt HW 8.0 kt RCW
W.Rank280° ranks 21
Current wind is above 280° avg. (6.0)
Visibility9999 m
Phenomena:N/A
Clouds:Broken 040 Hf
Expected CloudBase > 4,000 ft AGL from Temp-Dew spread
Ceiling4,000 ft
Temp19°C (ISA +5)
Dew Point09°C (52% RH)
AAT15.9°C
QNH1019 hPa
Density Alt768 ft
Elevation279 ft
Report Wrong Elevation
Raw Report
METAR LYVR 231200Z 28008KT 250V320 9999 BKN040 19/09 Q1019 NOSIG=

Extra information for LYVR:More info

Metar Taf Metar & Taf Last 4 Metars F.Rules Stats Wind Profile Meteogram Temp Stats Airport Information Weather charts Add Link Nearby VenuesMetar ALERT Operation Metar Decoded Social comments